Time;durP1;ratioP1;P1;durP2;ratioP2;P2;SDS_P1;SDS_P2;PMS_P1;PMS_P2;Temp;Humidity;BMP_temperature;BMP_pressure;BME280_temperature;BME280_humidity;BME280_pressure;Samples;Min_cycle;Max_cycle;Signal;HPM_P1;HPM_P2
2021/06/11 00:01:38;;;;;;;8.80;7.55;;;;;;;19.36;67.69;102022.19;5136123;27;20560;-40
2021/06/11 00:04:03;;;;;;;;;;;;;;;19.58;64.66;102024.03;5136734;27;20034;-40
2021/06/11 00:06:28;;;;;;;9.85;8.00;;;;;;;19.40;67.40;102022.50;5135737;27;19913;-40
2021/06/11 00:08:54;;;;;;;;;;;;;;;19.55;64.89;102025.38;5136931;27;20023;-40
2021/06/11 00:11:19;;;;;;;9.73;8.82;;;;;;;19.23;68.66;102019.91;5136812;27;19934;-40
2021/06/11 00:13:44;;;;;;;;;;;;;;;19.44;65.06;102021.72;5134974;27;20068;-40
2021/06/11 00:16:10;;;;;;;9.93;9.02;;;;;;;19.15;68.27;102021.19;5136300;27;19933;-40
2021/06/11 00:18:35;;;;;;;;;;;;;;;19.37;65.51;102020.28;5136187;27;20051;-40
2021/06/11 00:21:01;;;;;;;12.38;9.73;;;;;;;19.15;68.88;102017.63;5135919;27;20258;-40
2021/06/11 00:23:26;;;;;;;;;;;;;;;19.32;65.66;102014.75;5135800;27;20498;-40
2021/06/11 00:25:52;;;;;;;10.63;9.53;;;;;;;19.14;68.88;102024.22;5135955;27;19903;-40
2021/06/11 00:28:18;;;;;;;11.13;10.00;;;;;;;19.04;69.17;102020.28;5135695;27;20348;-40
2021/06/11 00:30:43;;;;;;;11.10;9.93;;;;;;;18.98;69.79;102021.31;5136366;27;20102;-40
2021/06/11 00:33:09;;;;;;;;;;;;;;;19.19;66.22;102018.78;5136164;27;20465;-40
2021/06/11 00:35:35;;;;;;;11.98;9.65;;;;;;;18.88;69.78;102029.41;5135976;27;19907;-40
2021/06/11 00:38:02;;;;;;;11.02;9.93;;;;;;;18.83;70.02;102029.38;5135373;27;20019;-40
2021/06/11 00:40:28;;;;;;;12.07;10.88;;;;;;;18.88;69.63;102020.38;5135214;27;20027;-40
2021/06/11 00:42:53;;;;;;;13.25;10.45;;;;;;;18.86;69.98;102022.56;5135615;27;20382;-40
2021/06/11 00:45:19;;;;;;;11.52;10.32;;;;;;;18.83;69.97;102029.38;5135323;27;20041;-40
2021/06/11 00:47:45;;;;;;;11.32;10.13;;;;;;;18.74;70.40;102020.81;5135469;27;20038;-40
2021/06/11 00:50:13;;;;;;;12.45;11.20;;;;;;;18.71;70.70;102025.97;5135217;27;20019;-40
2021/06/11 00:52:40;;;;;;;11.90;10.63;;;;;;;18.68;70.69;102021.81;5135658;27;20023;-40
2021/06/11 00:55:06;;;;;;;11.02;9.90;;;;;;;18.62;70.58;102027.47;5135381;27;20023;-40
2021/06/11 00:57:32;;;;;;;11.85;10.30;;;;;;;18.68;70.34;102027.28;5135204;27;20019;-40
2021/06/11 00:59:58;;;;;;;11.52;10.43;;;;;;;18.77;69.97;102023.00;5135042;27;20083;-40
2021/06/11 01:02:23;;;;;;;;;;;;;;;18.82;68.45;102021.41;5135009;27;20022;-40
2021/06/11 01:04:49;;;;;;;11.07;10.07;;;;;;;18.59;70.81;102019.75;5134945;27;19998;-40
2021/06/11 01:07:16;;;;;;;10.15;9.15;;;;;;;18.56;70.51;102017.53;5134852;27;20264;-40
2021/06/11 01:09:43;;;;;;;10.48;9.43;;;;;;;18.44;70.86;102007.53;5135418;27;20030;-40
2021/06/11 01:12:09;;;;;;;11.73;9.07;;;;;;;18.44;71.14;102012.16;5134792;27;20105;-40
2021/06/11 01:14:35;;;;;;;10.07;8.98;;;;;;;18.51;70.94;102016.38;5135332;27;20443;-40
2021/06/11 01:17:01;;;;;;;9.07;8.18;;;;;;;18.53;70.66;102027.06;5134329;27;20106;-40
2021/06/11 01:19:35;;;;;;;8.93;8.05;;;;;;;18.39;71.03;102012.94;5134788;27;20026;-40
2021/06/11 01:22:25;;;;;;;8.88;7.47;;;;;;;18.49;70.47;102031.41;5134363;27;20066;-40
2021/06/11 01:25:09;;;;;;;10.68;7.10;;;;;;;18.57;69.37;102030.13;5071197;28;20050;-40
2021/06/11 01:27:35;;;;;;;8.02;7.32;;;;;;;18.48;70.02;102027.00;5071253;28;20032;-40
2021/06/11 01:30:27;;;;;;;8.65;6.93;;;;;;;18.51;69.70;102032.00;5071259;28;20033;-40
2021/06/11 01:32:55;;;;;;;7.30;6.45;;;;;;;18.45;69.76;102022.88;5066686;28;20381;-40
2021/06/11 01:35:24;;;;;;;6.57;5.90;;;;;;;18.56;69.20;102028.50;5070967;28;20067;-40
2021/06/11 01:37:59;;;;;;;6.30;5.70;;;;;;;18.43;69.38;102021.47;5070918;28;20038;-40
2021/06/11 01:40:24;;;;;;;6.38;5.78;;;;;;;18.35;69.87;102019.19;5070751;28;20028;-40
2021/06/11 01:42:49;;;;;;;;;;;;;;;18.59;68.08;102028.78;5071446;28;20488;-40
2021/06/11 01:45:16;;;;;;;7.70;5.93;;;;;;;18.45;69.39;102025.63;5071838;28;19911;-40
2021/06/11 01:47:45;;;;;;;6.10;5.50;;;;;;;18.27;69.77;102026.75;5071153;28;20024;-40
2021/06/11 01:50:13;;;;;;;7.10;6.10;;;;;;;18.26;70.21;102022.38;5071097;28;20040;-40
2021/06/11 01:52:39;;;;;;;6.35;5.22;;;;;;;18.37;69.32;102012.38;5071172;28;20020;-40
2021/06/11 01:55:07;;;;;;;7.53;5.82;;;;;;;18.26;70.21;102027.03;5071816;28;20032;-40
2021/06/11 01:57:34;;;;;;;5.95;5.35;;;;;;;18.31;69.81;102020.78;5070762;28;20116;-40
2021/06/11 02:00:01;;;;;;;7.28;6.03;;;;;;;18.25;70.11;102019.88;5071662;28;20486;-39
2021/06/11 02:02:26;;;;;;;6.13;5.53;;;;;;;18.15;70.59;102014.25;5116753;28;20367;-39
2021/06/11 02:04:52;;;;;;;;;;;;;;;18.37;68.31;102011.56;5134949;27;20020;-39
2021/06/11 02:07:18;;;;;;;7.43;5.45;;;;;;;18.21;69.68;102014.09;5132971;28;19903;-39
2021/06/11 02:09:46;;;;;;;5.70;5.07;;;;;;;18.14;70.23;102015.34;5134187;27;20030;-39
2021/06/11 02:12:12;;;;;;;8.25;5.43;;;;;;;18.12;70.31;102012.06;5133814;27;20099;-39
2021/06/11 02:14:38;;;;;;;6.93;5.80;;;;;;;18.11;70.38;102008.50;5133924;27;20055;-39
2021/06/11 02:17:05;;;;;;;;;;;;;;;18.25;68.58;102011.66;5134172;27;20058;-40
2021/06/11 02:19:34;;;;;;;6.18;5.50;;;;;;;18.12;70.32;102015.63;5134495;27;20270;-39
2021/06/11 02:21:59;;;;;;;8.13;6.30;;;;;;;17.97;71.03;102018.97;5132732;28;20200;-39
2021/06/11 02:24:25;;;;;;;;;;;;;;;18.21;68.48;102007.78;5134561;27;20063;-39
2021/06/11 02:26:51;;;;;;;6.63;5.38;;;;;;;17.99;70.80;102005.84;5134714;28;19911;-39
2021/06/11 02:29:17;;;;;;;7.10;5.65;;;;;;;18.06;70.95;102007.59;5134800;27;20346;-39
2021/06/11 02:31:42;;;;;;;;;;;;;;;18.17;68.72;102004.72;5135141;27;20098;-39
2021/06/11 02:34:08;;;;;;;8.15;5.22;;;;;;;17.95;70.62;101995.66;5134704;28;20216;-39
2021/06/11 02:36:34;;;;;;;;;;;;;;;18.08;68.68;102002.69;5134519;27;20027;-39
2021/06/11 02:38:59;;;;;;;6.55;5.85;;;;;;;17.90;71.19;102001.88;5133854;27;19915;-39
2021/06/11 02:41:28;;;;;;;;;;;;;;;18.07;68.47;101998.28;5134395;27;20072;-39
2021/06/11 02:43:54;;;;;;;6.00;5.20;;;;;;;17.85;71.52;101996.34;5133516;27;19914;-40
2021/06/11 02:46:40;;;;;;;6.63;5.78;;;;;;;17.91;70.50;102006.28;5133882;27;20029;-40
2021/06/11 02:49:13;;;;;;;5.80;5.20;;;;;;;17.70;71.91;101994.19;5133756;27;20054;-40
2021/06/11 02:51:48;;;;;;;6.38;5.13;;;;;;;17.71;71.79;101993.13;5135392;27;20351;-40
2021/06/11 02:54:23;;;;;;;6.00;5.40;;;;;;;17.70;72.03;101990.63;5137414;27;20019;-40
2021/06/11 02:56:56;;;;;;;6.80;6.10;;;;;;;17.59;72.63;101983.34;5137695;27;20026;-40
2021/06/11 02:59:32;;;;;;;6.63;5.35;;;;;;;17.46;72.75;101987.22;5137835;27;20030;-40
2021/06/11 03:02:06;;;;;;;6.32;5.72;;;;;;;17.45;73.29;101988.31;5137335;27;20488;-40
2021/06/11 03:04:33;;;;;;;6.47;5.75;;;;;;;17.41;73.15;101974.31;5138085;27;20055;-40
2021/06/11 03:07:00;;;;;;;6.30;4.93;;;;;;;17.30;73.41;101977.13;5137467;27;20023;-40
2021/06/11 03:09:27;;;;;;;7.15;5.30;;;;;;;17.16;73.83;101982.91;5137404;27;20092;-40
2021/06/11 03:11:55;;;;;;;7.63;6.03;;;;;;;17.07;74.48;101983.56;5137950;27;20023;-40
2021/06/11 03:14:22;;;;;;;8.13;5.75;;;;;;;17.00;74.24;101972.81;5137052;27;20023;-40
2021/06/11 03:16:50;;;;;;;7.90;5.63;;;;;;;16.96;74.69;101977.09;5137161;27;20443;-40
2021/06/11 03:19:19;;;;;;;6.47;5.80;;;;;;;17.02;74.60;101978.84;5136909;27;20015;-40
2021/06/11 03:21:59;;;;;;;7.10;6.40;;;;;;;16.98;74.55;101980.41;5136883;27;20062;-40
2021/06/11 03:24:55;;;;;;;7.72;5.50;;;;;;;17.00;74.46;101978.28;5137205;27;20088;-40
2021/06/11 03:27:24;;;;;;;6.97;5.85;;;;;;;16.84;75.62;101970.91;5137113;27;20027;-40
2021/06/11 03:29:55;;;;;;;7.00;6.05;;;;;;;16.76;75.71;101963.91;5136712;27;20110;-40
2021/06/11 03:32:30;;;;;;;7.53;5.68;;;;;;;16.79;75.61;101963.44;5136726;27;20023;-40
2021/06/11 03:34:59;;;;;;;7.15;6.45;;;;;;;16.69;75.93;101963.22;5136908;27;20019;-40
2021/06/11 03:37:27;;;;;;;8.77;6.45;;;;;;;16.68;76.09;101961.53;5136468;27;20029;-40
2021/06/11 03:39:57;;;;;;;7.13;6.35;;;;;;;16.68;76.10;101959.63;5136610;27;20389;-40
2021/06/11 03:42:24;;;;;;;6.53;5.78;;;;;;;16.68;75.72;101954.16;5136450;27;20026;-40
2021/06/11 03:44:52;;;;;;;7.18;6.45;;;;;;;16.61;76.39;101948.03;5136284;27;20031;-40
2021/06/11 03:47:20;;;;;;;6.22;5.63;;;;;;;16.71;76.38;101950.13;5136366;27;20076;-40
2021/06/11 03:49:48;;;;;;;7.10;6.40;;;;;;;16.64;76.13;101947.56;5137259;27;20068;-40
2021/06/11 03:52:14;;;;;;;7.35;6.18;;;;;;;16.70;75.58;101951.22;5136311;27;20027;-40
2021/06/11 03:54:44;;;;;;;7.47;6.18;;;;;;;16.72;76.13;101949.91;5136838;27;20023;-40
2021/06/11 03:57:10;;;;;;;7.20;6.40;;;;;;;16.60;76.60;101954.59;5136703;27;20023;-40
2021/06/11 03:59:39;;;;;;;9.88;7.32;;;;;;;16.60;76.70;101956.50;5136873;27;20027;-40
2021/06/11 04:02:05;;;;;;;7.32;6.63;;;;;;;16.66;76.57;101950.03;5135939;27;20118;-39
2021/06/11 04:04:32;;;;;;;10.48;7.30;;;;;;;16.73;75.87;101958.94;5136534;27;20031;-40
2021/06/11 04:07:06;;;;;;;7.88;6.95;;;;;;;16.76;75.95;101963.91;5135677;27;20055;-40
2021/06/11 04:09:43;;;;;;;7.65;6.85;;;;;;;16.82;75.57;101957.47;5135949;27;20324;-40
2021/06/11 04:12:10;;;;;;;7.53;6.63;;;;;;;16.77;76.10;101957.38;5135973;27;20171;-40
2021/06/11 04:14:42;;;;;;;7.97;7.18;;;;;;;16.74;76.43;101955.16;5136497;27;20142;-40
2021/06/11 04:17:12;;;;;;;8.82;7.00;;;;;;;16.66;76.49;101955.50;5135776;27;20047;-40
2021/06/11 04:19:43;;;;;;;7.85;7.05;;;;;;;16.80;76.30;101962.34;5135768;27;20452;-40
2021/06/11 04:22:13;;;;;;;9.18;7.07;;;;;;;16.80;76.05;101967.00;5136336;27;20130;-40
2021/06/11 04:24:43;;;;;;;8.32;6.75;;;;;;;16.80;76.18;101973.28;5136019;27;20351;-40
2021/06/11 04:27:10;;;;;;;9.93;7.15;;;;;;;16.94;75.87;101979.28;5135925;27;20042;-40
2021/06/11 04:29:36;;;;;;;8.57;6.90;;;;;;;17.06;75.70;101979.19;5134501;27;20053;-40
2021/06/11 04:32:02;;;;;;;;;;;;;;;17.24;74.05;101982.53;5135661;27;20433;-40
2021/06/11 04:34:27;;;;;;;10.43;7.03;;;;;;;17.29;74.76;101991.91;5136014;27;19942;-39
2021/06/11 04:36:53;;;;;;;;;;;;;;;17.41;73.16;101990.72;5135943;27;20099;-40
2021/06/11 04:39:19;;;;;;;10.45;7.95;;;;;;;17.30;74.56;101993.53;5136242;27;19907;-40
2021/06/11 04:41:44;;;;;;;;;;;;;;;17.43;73.20;101987.75;5134480;27;20030;-40
2021/06/11 04:44:10;;;;;;;8.38;7.30;;;;;;;17.19;74.96;101987.09;5134469;27;19967;-40
2021/06/11 04:46:35;;;;;;;;;;;;;;;17.37;73.63;101978.66;5135817;27;20363;-40
2021/06/11 04:49:01;;;;;;;11.07;7.97;;;;;;;17.29;75.09;101972.75;5134873;27;19907;-40
2021/06/11 04:51:27;;;;;;;;;;;;;;;17.44;73.14;101992.13;5135821;27;20020;-40
2021/06/11 04:53:52;;;;;;;10.40;8.52;;;;;;;17.33;74.95;101985.69;5135105;27;19907;-40
2021/06/11 04:56:18;;;;;;;;;;;;;;;17.49;73.13;101998.50;5136211;27;20019;-40
2021/06/11 04:58:43;;;;;;;10.85;8.10;;;;;;;17.35;74.92;101993.63;5135805;27;20341;-40
2021/06/11 05:01:10;;;;;;;;;;;;;;;17.53;72.68;102004.31;5134398;27;20102;-40
2021/06/11 05:03:35;;;;;;;10.98;8.80;;;;;;;17.31;75.59;102000.66;5135422;27;20295;-40
2021/06/11 05:06:01;;;;;;;;;;;;;;;17.57;73.81;102005.47;5135377;27;20163;-40
2021/06/11 05:08:28;;;;;;;13.82;9.63;;;;;;;17.45;75.29;102011.03;5134832;27;19950;-40
2021/06/11 05:10:54;;;;;;;11.38;9.10;;;;;;;17.39;75.63;102009.28;5135706;27;20034;-40
2021/06/11 05:13:19;;;;;;;13.50;9.90;;;;;;;17.44;75.85;102011.28;5135090;27;20029;-40
2021/06/11 05:15:45;;;;;;;;;;;;;;;17.61;74.14;102014.81;5134779;27;20024;-40
2021/06/11 05:18:10;;;;;;;12.33;10.00;;;;;;;17.51;75.64;102003.72;5134944;27;19911;-40
2021/06/11 05:20:37;;;;;;;15.02;10.52;;;;;;;17.49;75.76;102012.19;5135265;27;20263;-40
2021/06/11 05:23:03;;;;;;;14.27;10.75;;;;;;;17.56;75.60;102012.00;5134677;27;20082;-40
2021/06/11 05:25:28;;;;;;;;;;;;;;;17.75;73.86;102013.44;5135423;27;20055;-40
2021/06/11 05:27:54;;;;;;;15.67;11.23;;;;;;;17.67;75.44;102002.06;5134805;27;19908;-40
2021/06/11 05:30:19;;;;;;;13.45;10.70;;;;;;;17.78;75.18;102003.09;5134611;27;20248;-40
2021/06/11 05:32:45;;;;;;;;;;;;;;;18.02;73.63;102001.78;5135750;27;20019;-40
2021/06/11 05:35:11;;;;;;;12.23;9.63;;;;;;;18.07;74.04;102009.25;5134983;27;19947;-40
2021/06/11 05:37:36;;;;;;;;;;;;;;;18.30;72.48;102008.16;5134499;27;20019;-40
2021/06/11 05:40:02;;;;;;;14.73;10.30;;;;;;;18.25;73.65;102009.78;5133518;28;19911;-40
2021/06/11 05:42:27;;;;;;;;;;;;;;;18.49;72.49;102012.22;5134382;27;20328;-40
2021/06/11 05:44:52;;;;;;;13.27;10.30;;;;;;;18.44;73.11;102014.91;5134336;28;20005;-40
2021/06/11 05:47:18;;;;;;;13.10;9.52;;;;;;;18.49;73.32;102017.72;5134320;27;20303;-40
2021/06/11 05:49:43;;;;;;;;;;;;;;;18.70;71.94;102013.34;5135528;28;20027;-40
2021/06/11 05:52:08;;;;;;;13.77;10.68;;;;;;;18.62;72.38;102011.03;5134480;28;19918;-40
2021/06/11 05:54:33;;;;;;;;;;;;;;;18.91;71.68;102014.38;5134986;27;20087;-40
2021/06/11 05:56:59;;;;;;;11.63;9.50;;;;;;;18.93;71.73;102018.50;5134161;28;20307;-40
2021/06/11 05:59:24;;;;;;;;;;;;;;;19.13;70.85;102004.19;5134353;27;20015;-40
2021/06/11 06:01:50;;;;;;;13.45;9.52;;;;;;;18.81;71.21;102015.09;5134152;28;19903;-40
2021/06/11 06:04:15;;;;;;;;;;;;;;;18.93;70.38;102007.53;5134810;28;20022;-40
2021/06/11 06:06:40;;;;;;;11.40;9.70;;;;;;;18.82;71.41;102013.19;5134736;28;19904;-39
2021/06/11 06:09:05;;;;;;;;;;;;;;;19.03;70.36;102023.25;5134604;27;20779;-39
2021/06/11 06:11:31;;;;;;;11.93;9.85;;;;;;;18.92;71.27;102016.84;5133812;28;19903;-39
2021/06/11 06:13:56;;;;;;;;;;;;;;;19.09;70.45;102016.78;5134254;28;20141;-40
2021/06/11 06:16:21;;;;;;;12.90;10.07;;;;;;;19.00;71.12;102004.63;5134039;28;19907;-40
2021/06/11 06:18:47;;;;;;;;;;;;;;;19.20;70.17;102017.69;5134167;27;20340;-40
2021/06/11 06:21:12;;;;;;;12.38;10.35;;;;;;;19.09;70.91;102010.47;5134336;27;19903;-40
2021/06/11 06:23:38;;;;;;;;;;;;;;;19.28;69.98;102009.00;5134967;27;20054;-40
2021/06/11 06:26:03;;;;;;;11.15;9.55;;;;;;;19.21;71.23;102006.44;5136237;27;19907;-40
2021/06/11 06:28:28;;;;;;;;;;;;;;;19.40;70.00;102001.41;5138283;27;20183;-40
2021/06/11 06:30:54;;;;;;;13.38;10.80;;;;;;;19.27;70.38;102012.78;5137561;27;19908;-40
2021/06/11 06:33:19;;;;;;;;;;;;;;;19.49;69.83;102013.53;5138213;27;20027;-40
2021/06/11 06:35:45;;;;;;;14.35;10.65;;;;;;;19.48;69.67;102011.91;5138274;27;19911;-40
2021/06/11 06:38:11;;;;;;;;;;;;;;;19.66;69.65;102007.91;5138614;27;20041;-40
2021/06/11 06:40:37;;;;;;;13.63;10.63;;;;;;;19.56;69.88;102013.31;5137960;27;20259;-40
2021/06/11 06:43:03;;;;;;;14.60;11.48;;;;;;;19.54;69.77;102018.25;5137526;27;20023;-40
2021/06/11 06:45:28;;;;;;;14.60;11.02;;;;;;;19.58;69.58;102013.06;5138143;27;20466;-40
2021/06/11 06:47:54;;;;;;;14.80;10.65;;;;;;;19.68;69.78;102008.50;5138010;27;20031;-40
2021/06/11 06:50:20;;;;;;;;;;;;;;;19.90;68.92;102011.09;5136754;27;20043;-40
2021/06/11 06:52:46;;;;;;;14.05;9.25;;;;;;;19.91;68.77;102001.81;5137388;27;19964;-40
2021/06/11 06:55:12;;;;;;;12.27;8.30;;;;;;;20.00;68.30;102008.41;5137339;27;20023;-40
2021/06/11 06:57:38;;;;;;;19.52;9.68;;;;;;;20.10;68.06;102006.81;5137220;27;20015;-40
2021/06/11 07:00:05;;;;;;;13.68;9.07;;;;;;;20.10;68.03;102004.91;5137030;27;20026;-40
2021/06/11 07:02:30;;;;;;;12.70;8.55;;;;;;;20.05;67.90;102008.44;5137142;27;20031;-40
2021/06/11 07:04:55;;;;;;;13.98;8.68;;;;;;;20.07;67.63;101997.22;5136982;27;20099;-40
2021/06/11 07:07:21;;;;;;;;;;;;;;;20.25;67.32;102006.88;5137384;27;20159;-40
2021/06/11 07:09:46;;;;;;;14.23;8.75;;;;;;;20.18;67.54;102004.41;5137131;27;20005;-40
2021/06/11 07:12:11;;;;;;;;;;;;;;;20.37;67.40;102009.44;5137540;27;20020;-40
2021/06/11 07:14:38;;;;;;;11.85;8.18;;;;;;;20.36;67.06;102007.78;5137371;27;19903;-40
2021/06/11 07:17:04;;;;;;;12.50;7.43;;;;;;;20.43;67.65;102008.34;5137189;27;20459;-40
2021/06/11 07:19:31;;;;;;;9.57;7.13;;;;;;;20.50;66.63;102011.72;5136975;27;20027;-40
2021/06/11 07:21:56;;;;;;;12.20;6.85;;;;;;;20.53;66.63;102008.41;5136388;27;20030;-40
2021/06/11 07:24:22;;;;;;;;;;;;;;;20.74;66.42;102009.28;5136424;27;20098;-40
2021/06/11 07:26:47;;;;;;;11.37;6.80;;;;;;;20.65;65.88;102011.75;5136851;27;20002;-40
2021/06/11 07:29:12;;;;;;;;;;;;;;;20.82;66.02;102012.34;5136899;27;20267;-40
2021/06/11 07:31:38;;;;;;;14.57;6.90;;;;;;;20.74;65.38;102020.28;5137293;27;20419;-40
2021/06/11 07:34:03;;;;;;;11.68;6.60;;;;;;;20.80;65.23;102016.47;5137477;27;20023;-40
2021/06/11 07:36:29;;;;;;;;;;;;;;;21.04;65.76;102016.78;5136996;27;20030;-40
2021/06/11 07:38:54;;;;;;;10.73;7.20;;;;;;;20.90;64.86;102013.75;5136013;27;19936;-40
2021/06/11 07:41:21;;;;;;;10.13;6.22;;;;;;;20.90;65.01;102024.75;5136553;27;20027;-40
2021/06/11 07:43:47;;;;;;;8.07;6.03;;;;;;;21.04;64.36;102025.03;5136937;27;20083;-40
2021/06/11 07:46:12;;;;;;;;;;;;;;;21.14;64.12;102014.06;5136336;27;20473;-40
2021/06/11 07:48:37;;;;;;;9.90;6.03;;;;;;;21.04;63.98;102022.31;5136621;27;20013;-40
2021/06/11 07:51:03;;;;;;;8.38;5.57;;;;;;;21.12;63.53;102026.41;5136363;27;20051;-40
2021/06/11 07:53:28;;;;;;;7.38;5.50;;;;;;;21.28;63.40;102022.59;5135952;27;20145;-40
2021/06/11 07:55:55;;;;;;;9.50;5.85;;;;;;;21.32;62.94;102024.53;5136374;27;20030;-40
2021/06/11 07:58:20;;;;;;;6.93;5.68;;;;;;;21.40;62.26;102017.66;5136204;27;20023;-40
2021/06/11 08:00:45;;;;;;;;;;;;;;;21.57;62.34;102023.72;5136909;27;20042;-40
2021/06/11 08:03:11;;;;;;;9.63;5.23;;;;;;;21.46;62.79;102026.75;5136377;27;19943;-40
2021/06/11 08:05:39;;;;;;;8.52;5.65;;;;;;;21.63;62.09;102019.03;5136372;27;20257;-40
2021/06/11 08:08:05;;;;;;;6.53;5.10;;;;;;;21.75;61.85;102018.72;5136802;27;20023;-40
2021/06/11 08:10:30;;;;;;;8.27;6.07;;;;;;;21.81;61.64;102012.09;5135977;27;20038;-40
2021/06/11 08:12:55;;;;;;;6.95;5.22;;;;;;;21.89;61.69;102010.72;5135850;27;20099;-40
2021/06/11 08:15:21;;;;;;;5.35;4.50;;;;;;;21.90;60.88;102010.44;5136682;27;20026;-40
2021/06/11 08:17:46;;;;;;;6.88;4.75;;;;;;;21.96;60.46;102008.50;5136221;27;20095;-40
2021/06/11 08:20:12;;;;;;;6.95;4.28;;;;;;;22.02;59.87;102010.97;5136046;27;20421;-40
2021/06/11 08:22:38;;;;;;;5.82;3.53;;;;;;;22.23;59.83;102009.00;5135867;27;20389;-40
2021/06/11 08:25:06;;;;;;;5.47;3.55;;;;;;;22.36;58.86;102013.91;5135963;27;20038;-40
2021/06/11 08:27:31;;;;;;;5.25;4.47;;;;;;;22.47;58.78;102019.38;5135607;27;20019;-40
2021/06/11 08:29:57;;;;;;;5.53;4.85;;;;;;;22.57;58.69;102005.53;5135220;27;20033;-40
2021/06/11 08:32:22;;;;;;;6.95;4.93;;;;;;;22.67;57.61;102016.50;5135506;27;20075;-40
2021/06/11 08:34:47;;;;;;;7.75;4.43;;;;;;;22.77;57.48;102021.16;5136066;27;20080;-40
2021/06/11 08:37:13;;;;;;;6.53;4.85;;;;;;;22.83;57.05;102011.72;5135235;27;20031;-40
2021/06/11 08:39:38;;;;;;;5.97;4.55;;;;;;;22.93;57.13;102002.59;5135749;27;20106;-40
2021/06/11 08:42:08;;;;;;;6.65;4.43;;;;;;;23.03;57.11;102010.78;5134885;27;20019;-40
2021/06/11 08:44:34;;;;;;;5.13;4.25;;;;;;;23.14;56.09;102006.88;5135811;27;20075;-39
2021/06/11 08:47:00;;;;;;;5.65;4.32;;;;;;;23.28;55.71;102007.03;5135215;27;20027;-40
2021/06/11 08:49:25;;;;;;;6.43;5.13;;;;;;;23.32;54.37;102011.66;5135420;27;20386;-40
2021/06/11 08:51:52;;;;;;;6.32;4.25;;;;;;;23.54;54.47;102011.22;5135132;27;20443;-40
2021/06/11 08:54:18;;;;;;;6.35;4.50;;;;;;;23.66;54.41;102016.38;5135408;27;20026;-40
2021/06/11 08:56:43;;;;;;;7.03;4.80;;;;;;;23.80;54.46;102014.56;5135420;27;20031;-40
2021/06/11 08:59:09;;;;;;;6.65;5.35;;;;;;;23.89;54.48;102012.81;5134921;27;20027;-40
2021/06/11 09:01:34;;;;;;;8.13;6.30;;;;;;;23.83;54.72;102005.72;5135274;27;20031;-40
2021/06/11 09:04:00;;;;;;;8.23;6.53;;;;;;;23.92;53.08;102010.59;5134914;27;20439;-40
2021/06/11 09:06:25;;;;;;;10.82;6.72;;;;;;;24.08;53.06;102010.13;5135023;27;20445;-40
2021/06/11 09:08:56;;;;;;;7.55;6.68;;;;;;;24.25;52.79;102008.81;5134780;27;20015;-39
2021/06/11 09:11:24;;;;;;;6.55;5.63;;;;;;;24.39;52.50;102005.06;5135590;27;20023;-39
2021/06/11 09:14:06;;;;;;;10.13;7.15;;;;;;;24.28;52.75;102003.53;5134731;27;20058;-39
2021/06/11 09:16:48;;;;;;;8.80;7.07;;;;;;;24.42;51.83;102000.09;5051906;28;20120;-40
2021/06/11 09:19:22;;;;;;;10.43;8.00;;;;;;;24.58;51.86;102002.34;5051303;28;20045;-40
2021/06/11 09:21:49;;;;;;;10.10;7.88;;;;;;;24.74;52.80;102000.16;5051659;28;20040;-39
2021/06/11 09:24:28;;;;;;;12.38;9.93;;;;;;;24.52;52.04;102008.25;5051941;28;20420;-40
2021/06/11 09:27:21;;;;;;;10.98;9.13;;;;;;;24.13;52.71;102000.97;5051060;28;20140;-40
2021/06/11 09:29:50;;;;;;;9.98;7.07;;;;;;;24.48;51.39;101998.88;5050521;28;20036;-40
2021/06/11 09:32:22;;;;;;;11.20;7.40;;;;;;;24.75;50.73;101995.47;5051357;28;20373;-40
2021/06/11 09:34:55;;;;;;;8.48;5.88;;;;;;;24.80;49.21;101999.00;5051059;28;20500;-40
2021/06/11 09:37:30;;;;;;;9.02;5.90;;;;;;;24.80;49.07;102004.53;5051177;28;20043;-40
2021/06/11 09:40:03;;;;;;;11.00;8.25;;;;;;;25.05;49.17;101994.19;5051411;28;20028;-39
2021/06/11 09:42:33;;;;;;;12.15;8.98;;;;;;;24.89;49.44;101996.38;5050960;28;20082;-39
2021/06/11 09:45:09;;;;;;;8.55;6.18;;;;;;;25.09;47.87;101990.56;5051150;28;20029;-40
2021/06/11 09:47:34;;;;;;;;;;;;;;;25.40;49.52;101996.38;5051890;28;20070;-40
2021/06/11 09:50:28;;;;;;;14.67;10.50;;;;;;;24.83;49.90;101994.78;5051542;28;19905;-40
2021/06/11 09:52:57;;;;;;;15.07;10.43;;;;;;;24.88;50.24;101995.53;5054711;28;20441;-40
2021/06/11 09:55:51;;;;;;;13.65;9.68;;;;;;;25.24;49.95;101983.94;5134376;27;20471;-40
2021/06/11 09:58:23;;;;;;;11.70;8.55;;;;;;;25.38;48.89;101982.03;5051273;28;20112;-40
2021/06/11 10:00:59;;;;;;;11.43;8.00;;;;;;;25.47;48.09;101984.09;5052649;28;20417;-39
2021/06/11 10:03:27;;;;;;;;;;;;;;;25.91;48.62;101980.78;5055998;28;20453;-40
2021/06/11 10:05:56;;;;;;;10.23;6.03;;;;;;;25.90;46.22;101973.63;5055366;28;20299;-40
2021/06/11 10:08:23;;;;;;;9.02;5.30;;;;;;;25.81;45.14;101992.06;5054736;28;20107;-40
2021/06/11 10:10:51;;;;;;;8.63;5.72;;;;;;;25.83;48.55;101984.28;5055074;28;20052;-40
2021/06/11 10:13:18;;;;;;;9.32;6.28;;;;;;;25.98;46.03;101992.31;5054689;28;20132;-40
2021/06/11 10:15:45;;;;;;;8.80;5.57;;;;;;;25.98;46.19;101985.94;5055088;28;20033;-40
2021/06/11 10:18:12;;;;;;;10.23;7.00;;;;;;;25.93;45.86;101979.38;5054979;28;20037;-40
2021/06/11 10:20:38;;;;;;;9.52;6.03;;;;;;;26.15;46.15;101980.59;5054645;28;20039;-40
2021/06/11 10:23:10;;;;;;;11.88;7.38;;;;;;;26.31;46.16;101984.69;5054794;28;20041;-40
2021/06/11 10:25:40;;;;;;;13.82;6.53;;;;;;;26.41;44.91;101984.47;5055089;28;20412;-40
2021/06/11 10:28:07;;;;;;;10.80;6.70;;;;;;;26.55;45.25;101986.41;5054880;28;20516;-40
2021/06/11 10:30:32;;;;;;;10.77;6.78;;;;;;;26.38;44.93;101971.22;5054633;28;20557;-40
2021/06/11 10:32:59;;;;;;;12.52;6.72;;;;;;;26.49;44.87;101971.84;5054289;28;20107;-40
2021/06/11 10:35:42;;;;;;;10.20;5.80;;;;;;;26.72;45.21;101967.16;5105327;27;20129;-40
2021/06/11 10:38:34;;;;;;;10.82;6.10;;;;;;;26.79;46.32;101970.34;5137993;27;20102;-40
2021/06/11 10:41:05;;;;;;;8.82;6.25;;;;;;;26.83;44.07;101965.78;5137456;27;20019;-40
2021/06/11 10:43:37;;;;;;;9.27;6.32;;;;;;;26.62;44.77;101961.84;5137628;27;20072;-40
2021/06/11 10:46:26;;;;;;;10.60;6.40;;;;;;;26.76;44.25;101967.38;5137694;27;20447;-40
2021/06/11 10:49:07;;;;;;;12.93;7.10;;;;;;;26.85;44.19;101957.97;5137878;27;20022;-40
2021/06/11 10:51:43;;;;;;;9.27;5.68;;;;;;;27.04;44.10;101960.56;5137831;27;20037;-40
2021/06/11 10:54:24;;;;;;;10.40;6.88;;;;;;;27.19;43.88;101960.22;5137184;27;20023;-40
2021/06/11 10:56:56;;;;;;;11.52;7.63;;;;;;;26.85;44.07;101957.16;5137671;27;20048;-40
2021/06/11 10:59:35;;;;;;;11.82;6.82;;;;;;;26.83;43.76;101956.63;5137300;27;20019;-40
2021/06/11 11:02:01;;;;;;;9.07;5.90;;;;;;;26.84;43.38;101949.94;5137605;27;20098;-40
2021/06/11 11:04:32;;;;;;;9.60;6.50;;;;;;;26.80;43.78;101943.41;5137217;27;20102;-40
2021/06/11 11:07:17;;;;;;;10.68;6.30;;;;;;;26.81;43.15;101947.81;5137946;27;20024;-40
2021/06/11 11:09:59;;;;;;;9.65;6.18;;;;;;;26.85;44.46;101949.66;5137314;27;20439;-41
2021/06/11 11:12:32;;;;;;;13.93;7.43;;;;;;;26.64;43.75;101952.06;5136482;27;20016;-40
2021/06/11 11:14:59;;;;;;;11.70;6.75;;;;;;;26.99;43.73;101948.75;5136957;27;20057;-40
2021/06/11 11:17:25;;;;;;;10.20;5.88;;;;;;;27.28;43.79;101942.75;5136966;27;20059;-40
2021/06/11 11:19:55;;;;;;;10.55;6.82;;;;;;;27.48;41.96;101936.69;5137622;27;20455;-40
2021/06/11 11:22:25;;;;;;;11.35;7.10;;;;;;;27.53;42.25;101935.72;5137381;27;20035;-40
2021/06/11 11:24:52;;;;;;;13.30;7.88;;;;;;;27.62;42.16;101931.00;5137498;27;20119;-40
2021/06/11 11:27:17;;;;;;;11.00;6.90;;;;;;;27.35;42.91;101927.31;5136384;27;20445;-40
2021/06/11 11:29:43;;;;;;;11.52;7.32;;;;;;;27.00;43.21;101940.13;5136634;27;20053;-40
2021/06/11 11:32:08;;;;;;;12.63;7.05;;;;;;;26.80;43.60;101933.13;5136765;27;20098;-40
2021/06/11 11:34:33;;;;;;;11.43;6.53;;;;;;;26.73;43.86;101934.69;5136434;27;20038;-40
2021/06/11 11:36:59;;;;;;;11.27;6.93;;;;;;;26.46;43.68;101941.16;5136683;27;20027;-40